Flight Track Log - Related Links

Times and Time Zones

All times are in EDT time to prevent confusion due to time zone crossing. See the JZA7940 flight status page for this flight to view local times or setup timezone preferences in your user account.

Time Position Orientation Groundspeed Altitude Reporting Facility
EDT Latitude Longitude Course Direction KTS MPH feet Rate Location/Type
Mon 08:28:28 PM 42.9500 -87.8833 66° East 159 183 1,300  Level KMKE
Mon 08:30:00 PM 42.9333 -87.7032 90° East  Level FlightAware
Mon 08:30:48 PM 42.9306 -87.7139 90° East 251 289 7,500  Level Chicago Center
Mon 08:31:50 PM 42.9350 -87.5908 87° East 277 319 11,000 2,710 Climbing Chicago Center
Mon 08:32:52 PM 42.9406 -87.4758 86° East 300 345 13,100 1,887 Climbing Chicago Center
Mon 08:33:00 PM 43.0330 -87.1950 90° East  Level Estimated
Mon 08:34:00 PM 43.0496 -87.0543 66° East  Level Estimated
Mon 08:35:00 PM 42.9167 -87.1747 90° East  Level FlightAware
Mon 08:35:58 PM 42.9889 -87.0558 90° East 378 435 18,800  Level Chicago Center
Mon 08:37:00 PM 43.0039 -86.9094 82° East 388 447 20,500 1,790 Climbing Chicago Center
Mon 08:38:02 PM 43.0200 -86.7619 81° East 393 452 22,500 1,797 Climbing Chicago Center
Mon 08:40:07 PM 43.0531 -86.4522 82° East 377 434 26,100 1,829 Climbing Chicago Center
Mon 08:41:09 PM 43.0681 -86.3081 82° East 383 441 28,200 1,548 Climbing Chicago Center
Mon 08:42:11 PM 43.0825 -86.1700 82° East 370 426 29,300 1,016 Climbing Chicago Center
Mon 08:43:13 PM 43.0969 -86.0158 83° East 374 430 30,300 919 Climbing Chicago Center
Mon 08:44:15 PM 43.1117 -85.8703 82° East 379 436 31,200 871 Climbing Chicago Center
Mon 08:45:17 PM 43.1256 -85.7219 83° East 392 451 32,100 871 Climbing Chicago Center
Mon 08:46:19 PM 43.1397 -85.5753 82° East 389 448 33,000 435 Climbing Chicago Center
Mon 08:47:21 PM 43.1544 -85.4239 82° East 396 456 33,000  Level Chicago Center
Mon 08:48:00 PM 43.1644 -85.2917 84° East 406 467 33,000  Level Cleveland Center
Mon 08:49:00 PM 43.1792 -85.1333 83° East 411 473 33,000  Level Cleveland Center
Mon 08:50:00 PM 43.1961 -84.9664 82° East 428 493 33,000 -50 Level Cleveland Center
Mon 08:51:00 PM 43.2106 -84.7994 83° East 438 504 32,900 -550 Descending Cleveland Center
Mon 08:52:00 PM 43.2222 -84.6492 84° East 422 486 31,900 -1,451 Descending Cleveland Center
Mon 08:53:33 PM 43.2414 -84.4508 82° East 381 438 29,200 -1,234 Descending Chicago Center
Mon 08:54:21 PM 43.2333 -84.3000 94° East 380 437 29,000 -111 Descending Toronto Center
Mon 08:55:21 PM 43.2167 -84.1667 100° East 380 437 29,000  Level Toronto Center
Mon 08:56:00 PM 43.2431 -84.0775 68° East 371 427 29,000  Level Cleveland Center
Mon 08:57:00 PM 43.2453 -83.9350 89° East 371 427 29,000  Level Cleveland Center
Mon 08:58:00 PM 43.2475 -83.7783 89° East 383 441 29,000  Level Cleveland Center
Mon 08:59:00 PM 43.2500 -83.6131 89° East 404 465 29,000  Level Cleveland Center
Mon 09:00:00 PM 43.2519 -83.4478 89° East 423 487 29,000  Level Cleveland Center
Mon 09:01:00 PM 43.2519 -83.2767 90° East 438 504 29,000  Level Cleveland Center
Mon 09:03:00 PM 43.2556 -82.9264 89° East 454 522 29,000  Level Cleveland Center
Mon 09:04:00 PM 43.2547 -82.7553 90° East 454 522 29,000  Level Cleveland Center
Mon 09:05:21 PM 43.2667 -82.5167 86° East 450 518 29,000  Level Toronto Center
Mon 09:06:21 PM 43.2667 -82.3500 90° East 450 518 29,000 -850 Level Toronto Center
Mon 09:07:21 PM 43.2833 -82.1833 82° East 420 483 27,300 -1,750 Descending Toronto Center
Mon 09:08:21 PM 43.2833 -82.0333 90° East 400 460 25,500 -1,900 Descending Toronto Center
Mon 09:09:21 PM 43.3167 -81.8833 73° East 390 449 23,500 -1,825 Descending Toronto Center
Mon 09:11:00 PM 43.3312 -81.6607 75° East  Level FlightAware
Mon 09:12:21 PM 43.3333 -81.4500 75° East 370 426 18,200  Level Toronto Center
Mon 09:13:21 PM 43.3500 -81.3333 79° East 360 414 16,900 -1,500 Descending Toronto Center
Mon 09:14:21 PM 43.3500 -81.2000 90° East 350 403 15,200 -1,500 Descending Toronto Center
Mon 09:15:21 PM 43.3667 -81.0500 81° East 350 403 13,900 -1,150 Descending Toronto Center
Mon 09:16:21 PM 43.3833 -80.9333 79° East 340 391 12,900 -1,100 Descending Toronto Center
Mon 09:17:21 PM 43.4167 -80.8000 71° East 330 380 11,700 -1,100 Descending Toronto Center
Mon 09:18:21 PM 43.4167 -80.6833 90° East 330 380 10,700 -1,100 Descending Toronto Center
Mon 09:19:21 PM 43.4333 -80.5667 79° East 290 334 9,500 -1,250 Descending Toronto Center
Mon 09:20:21 PM 43.4333 -80.4667 90° East 290 334 8,200 -700 Descending Toronto Center
Mon 09:22:00 PM 43.4813 -80.2520 69° East  Level FlightAware
Mon 09:23:21 PM 43.4833 -80.1667 69° East 260 299 6,700  Level Toronto Center
Mon 09:24:21 PM 43.4833 -80.0667 90° East 250 288 5,800 -567 Descending Toronto Center
Mon 09:26:21 PM 43.5000 -79.8833 83° East 240 276 5,000 -567 Descending Toronto Center
Mon 09:27:21 PM 43.5333 -79.8167 55° Northeast 240 276 4,100 -900 Descending Toronto Center

Login

Don't have an account? Register now (free) for customized features, flight alerts, and more!